createdAt,value
2017-11-16T00:01:10.473Z,18.73
2017-11-16T00:03:40.101Z,24.37
2017-11-16T00:06:08.994Z,19.23
2017-11-16T00:08:37.879Z,20.40
2017-11-16T00:11:06.732Z,21.00
2017-11-16T00:13:36.338Z,23.23
2017-11-16T00:16:05.985Z,19.97
2017-11-16T00:18:34.848Z,18.27
2017-11-16T00:21:04.466Z,22.97
2017-11-16T00:23:33.338Z,21.90
2017-11-16T00:26:02.977Z,20.17
2017-11-16T00:28:31.824Z,22.30
2017-11-16T00:31:00.665Z,22.03
2017-11-16T00:33:29.524Z,20.53
2017-11-16T00:35:59.147Z,22.87
2017-11-16T00:38:28.006Z,22.43
2017-11-16T00:40:57.524Z,27.27
2017-11-16T00:43:27.151Z,21.50
2017-11-16T00:45:56.090Z,21.50
2017-11-16T00:48:24.911Z,27.47
2017-11-16T00:50:53.984Z,22.87
2017-11-16T00:53:23.246Z,22.70
2017-11-16T00:55:52.541Z,27.30
2017-11-16T00:58:22.908Z,20.60
2017-11-16T01:00:51.780Z,24.67
2017-11-16T01:03:21.427Z,21.93
2017-11-16T01:05:50.276Z,22.30
2017-11-16T01:08:19.885Z,22.27
2017-11-16T01:10:49.508Z,24.30
2017-11-16T01:13:18.350Z,20.03
2017-11-16T01:15:47.216Z,25.50
2017-11-16T01:18:16.055Z,20.00
2017-11-16T01:20:45.773Z,21.57
2017-11-16T01:23:15.419Z,21.07
2017-11-16T01:25:44.274Z,19.07
2017-11-16T01:28:13.161Z,17.03
2017-11-16T01:30:42.759Z,22.70
2017-11-16T01:33:12.378Z,21.87
2017-11-16T01:35:41.289Z,18.70
2017-11-16T01:38:10.157Z,17.77
2017-11-16T01:40:39.753Z,24.07
2017-11-16T01:43:09.376Z,20.97
2017-11-16T01:45:38.227Z,23.03
2017-11-16T01:48:07.081Z,20.50
2017-11-16T01:50:35.921Z,18.40
2017-11-16T01:53:05.562Z,19.20
2017-11-16T01:55:34.405Z,17.70
2017-11-16T01:58:03.253Z,16.10
2017-11-16T02:00:32.868Z,20.30
2017-11-16T02:03:02.485Z,19.40
2017-11-16T02:05:31.327Z,16.43
2017-11-16T02:08:00.188Z,17.47
2017-11-16T02:10:29.027Z,17.63
2017-11-16T02:12:58.663Z,17.50
2017-11-16T02:15:27.509Z,17.90
2017-11-16T02:17:56.998Z,18.50
2017-11-16T02:20:25.843Z,17.67
2017-11-16T02:22:54.749Z,19.23
2017-11-16T02:25:23.815Z,19.57
2017-11-16T02:27:52.635Z,22.90
2017-11-16T02:30:21.621Z,20.47
2017-11-16T02:32:50.476Z,18.83
2017-11-16T02:35:20.088Z,20.27
2017-11-16T02:37:49.717Z,17.30
2017-11-16T02:40:18.574Z,15.17
2017-11-16T02:42:48.202Z,16.83
2017-11-16T02:45:17.741Z,16.40
2017-11-16T02:47:46.610Z,15.10
2017-11-16T02:50:16.212Z,17.13
2017-11-16T02:52:45.060Z,16.63
2017-11-16T02:55:13.942Z,14.80
2017-11-16T02:57:43.558Z,16.37
2017-11-16T03:00:13.180Z,17.93
2017-11-16T03:02:42.043Z,15.57
2017-11-16T03:05:11.675Z,14.33
2017-11-16T03:07:40.521Z,16.13
2017-11-16T03:10:10.879Z,14.00
2017-11-16T03:12:39.733Z,21.23
2017-11-16T03:15:08.587Z,16.23
2017-11-16T03:17:37.418Z,18.40
2017-11-16T03:20:06.260Z,16.43
2017-11-16T03:22:35.103Z,19.03
2017-11-16T03:25:04.708Z,17.13
2017-11-16T03:27:34.744Z,17.33
2017-11-16T03:30:04.017Z,16.90
2017-11-16T03:32:32.863Z,17.23
2017-11-16T03:35:01.745Z,17.20
2017-11-16T03:37:30.613Z,16.00
2017-11-16T03:39:59.449Z,14.07
2017-11-16T03:42:28.308Z,14.70
2017-11-16T03:44:57.252Z,20.53
2017-11-16T03:47:26.063Z,13.03
2017-11-16T03:49:55.696Z,11.40
2017-11-16T03:52:24.598Z,12.13
2017-11-16T03:54:53.688Z,13.07
2017-11-16T03:57:22.541Z,14.87
2017-11-16T03:59:51.380Z,14.30
2017-11-16T04:02:20.242Z,12.93
2017-11-16T04:04:49.082Z,13.27
2017-11-16T04:07:18.690Z,13.17
2017-11-16T04:09:48.290Z,14.20
2017-11-16T04:12:18.129Z,13.10
2017-11-16T04:14:47.121Z,14.47
2017-11-16T04:17:15.974Z,13.83
2017-11-16T04:19:44.811Z,11.80
2017-11-16T04:22:13.688Z,12.93
2017-11-16T04:24:42.561Z,14.67
2017-11-16T04:27:12.166Z,15.27
2017-11-16T04:29:44.764Z,17.90
2017-11-16T04:32:13.620Z,13.13
2017-11-16T04:34:43.237Z,16.07
2017-11-16T04:37:12.893Z,16.00
2017-11-16T04:39:41.769Z,17.30
2017-11-16T04:42:10.626Z,17.17
2017-11-16T04:44:40.243Z,15.07
2017-11-16T04:47:09.120Z,15.40
2017-11-16T04:49:38.729Z,13.90
2017-11-16T04:52:08.361Z,17.87
2017-11-16T04:54:37.225Z,16.43
2017-11-16T04:57:06.051Z,18.03
2017-11-16T04:59:35.030Z,14.10
2017-11-16T05:02:03.868Z,15.97
2017-11-16T05:04:32.711Z,13.43
2017-11-16T05:07:01.566Z,16.47
2017-11-16T05:09:30.419Z,16.43
2017-11-16T05:12:00.044Z,13.23
2017-11-16T05:14:29.028Z,14.53
2017-11-16T05:16:57.868Z,15.47
2017-11-16T05:19:26.696Z,15.77
2017-11-16T05:21:56.544Z,16.37
2017-11-16T05:24:25.372Z,17.97
2017-11-16T05:26:54.999Z,12.30
2017-11-16T05:29:24.609Z,17.50
2017-11-16T05:31:54.216Z,17.93
2017-11-16T05:34:23.489Z,22.40
2017-11-16T05:36:52.336Z,17.60
2017-11-16T05:39:21.627Z,17.53
2017-11-16T05:41:50.526Z,16.57
2017-11-16T05:44:20.122Z,13.53
2017-11-16T05:46:48.975Z,13.17
2017-11-16T05:49:17.813Z,13.10
2017-11-16T05:51:46.678Z,15.50
2017-11-16T05:54:15.527Z,17.60
2017-11-16T05:56:46.744Z,13.77
2017-11-16T05:59:16.580Z,13.10
2017-11-16T06:01:46.209Z,12.50
2017-11-16T06:04:15.810Z,14.00
2017-11-16T06:06:45.415Z,13.40
2017-11-16T06:09:15.043Z,13.20
2017-11-16T06:11:43.889Z,13.43
2017-11-16T06:14:12.737Z,12.73
2017-11-16T06:16:41.559Z,12.53
2017-11-16T06:19:10.429Z,16.00
2017-11-16T06:21:39.272Z,10.87
2017-11-16T06:24:09.199Z,13.83
2017-11-16T06:26:38.032Z,13.77
2017-11-16T06:29:06.892Z,14.53
2017-11-16T06:31:35.758Z,11.23
2017-11-16T06:34:05.381Z,13.10
2017-11-16T06:36:34.276Z,11.60
2017-11-16T06:39:03.126Z,11.70
2017-11-16T06:41:32.743Z,13.13
2017-11-16T06:44:02.349Z,11.87
2017-11-16T06:46:31.977Z,13.90
2017-11-16T06:49:00.821Z,12.93
2017-11-16T06:51:29.655Z,14.73
2017-11-16T06:53:58.528Z,14.07
2017-11-16T06:56:28.131Z,19.40
2017-11-16T06:58:56.952Z,16.53
2017-11-16T07:01:25.802Z,13.47
2017-11-16T07:03:54.651Z,19.60
2017-11-16T07:06:23.491Z,14.10
2017-11-16T07:08:52.470Z,14.47
2017-11-16T07:11:23.121Z,21.33
2017-11-16T07:13:52.000Z,14.80
2017-11-16T07:16:20.837Z,23.60
2017-11-16T07:18:49.681Z,18.10
2017-11-16T07:21:18.523Z,66.10
2017-11-16T07:36:48.137Z,18.43
2017-11-16T07:39:17.763Z,20.23
2017-11-16T07:41:46.636Z,19.73
2017-11-16T07:44:16.244Z,20.03
2017-11-16T07:46:45.891Z,19.43
2017-11-16T07:49:15.136Z,18.30
2017-11-16T07:51:44.756Z,17.97
2017-11-16T07:54:14.377Z,19.93
2017-11-16T07:56:43.209Z,17.23
2017-11-16T07:59:12.081Z,17.30
2017-11-16T08:01:40.913Z,21.17
2017-11-16T08:04:11.267Z,20.80
2017-11-16T08:06:40.878Z,21.30
2017-11-16T08:09:09.751Z,20.83
2017-11-16T08:11:39.867Z,20.30
2017-11-16T08:14:09.516Z,21.40
2017-11-16T08:16:38.359Z,21.77
2017-11-16T08:19:07.188Z,22.43
2017-11-16T08:21:36.046Z,21.07
2017-11-16T08:24:05.683Z,19.80
2017-11-16T08:26:34.571Z,20.70
2017-11-16T08:29:03.416Z,20.80
2017-11-16T08:31:33.804Z,18.70
2017-11-16T08:34:02.645Z,20.80
2017-11-16T08:36:31.515Z,20.77
2017-11-16T08:39:00.366Z,18.93
2017-11-16T08:41:29.229Z,19.93
2017-11-16T08:43:58.881Z,23.53
2017-11-16T08:46:27.728Z,23.33
2017-11-16T08:48:56.587Z,25.77
2017-11-16T08:51:25.431Z,19.33
2017-11-16T08:53:54.287Z,19.43
2017-11-16T08:56:24.847Z,24.07
2017-11-16T08:58:54.282Z,22.07
2017-11-16T09:01:23.162Z,23.43
2017-11-16T09:03:52.010Z,22.00
2017-11-16T09:06:21.628Z,22.03
2017-11-16T09:08:51.249Z,22.27
2017-11-16T09:11:20.527Z,21.83
2017-11-16T09:13:50.136Z,22.97
2017-11-16T09:16:19.822Z,23.97
2017-11-16T09:18:48.633Z,22.03
2017-11-16T09:21:17.756Z,22.03
2017-11-16T09:23:46.605Z,23.70
2017-11-16T09:26:16.223Z,22.30
2017-11-16T09:28:45.836Z,19.40
2017-11-16T09:31:15.471Z,18.83
2017-11-16T09:33:44.337Z,19.77
2017-11-16T09:36:13.212Z,21.73
2017-11-16T09:38:42.862Z,21.67
2017-11-16T09:41:11.692Z,19.03
2017-11-16T09:43:40.531Z,24.57
2017-11-16T09:46:09.402Z,23.07
2017-11-16T09:48:39.028Z,22.13
2017-11-16T09:51:07.892Z,26.30
2017-11-16T09:53:37.502Z,21.70
2017-11-16T09:56:07.136Z,23.73
2017-11-16T09:58:35.970Z,21.20
2017-11-16T10:01:04.920Z,23.93
2017-11-16T10:03:33.775Z,26.87
2017-11-16T10:06:02.632Z,23.90
2017-11-16T10:08:31.572Z,25.80
2017-11-16T10:11:00.439Z,21.77
2017-11-16T10:13:29.319Z,22.97
2017-11-16T10:15:58.194Z,21.57
2017-11-16T10:18:27.079Z,21.33
2017-11-16T10:20:56.668Z,25.63
2017-11-16T10:23:26.309Z,25.87
2017-11-16T10:25:55.140Z,30.33
2017-11-16T10:28:24.033Z,24.47
2017-11-16T10:30:52.882Z,25.73
2017-11-16T10:33:21.842Z,24.60
2017-11-16T10:35:51.441Z,21.90
2017-11-16T10:38:21.091Z,25.57
2017-11-16T10:40:50.702Z,23.00
2017-11-16T10:43:19.543Z,25.13
2017-11-16T10:45:49.180Z,23.67
2017-11-16T10:48:18.025Z,21.83
2017-11-16T10:50:46.881Z,21.13
2017-11-16T10:53:15.711Z,22.77
2017-11-16T10:55:45.331Z,18.70
2017-11-16T10:58:14.941Z,18.27
2017-11-16T11:00:44.584Z,18.20
2017-11-16T11:03:14.172Z,18.93
2017-11-16T11:05:43.024Z,19.73
2017-11-16T11:08:12.747Z,21.33
2017-11-16T11:10:43.292Z,16.70
2017-11-16T11:13:12.144Z,17.30
2017-11-16T11:15:40.987Z,17.90
2017-11-16T11:18:09.832Z,20.17
2017-11-16T11:20:39.435Z,17.77
2017-11-16T11:23:08.557Z,16.23
2017-11-16T11:25:37.416Z,19.10
2017-11-16T11:28:07.135Z,25.20
2017-11-16T11:30:36.745Z,17.37
2017-11-16T11:33:06.392Z,16.93
2017-11-16T11:35:35.256Z,16.93
2017-11-16T11:38:04.860Z,15.27
2017-11-16T11:40:34.465Z,15.97
2017-11-16T11:43:04.208Z,18.40
2017-11-16T11:45:33.064Z,17.83
2017-11-16T11:48:01.929Z,19.93
2017-11-16T11:50:31.042Z,16.00
2017-11-16T11:53:00.694Z,20.93
2017-11-16T11:55:29.605Z,18.57
2017-11-16T11:57:58.452Z,17.90
2017-11-16T12:00:27.305Z,17.40
2017-11-16T12:02:56.378Z,17.00
2017-11-16T12:05:25.429Z,19.30
2017-11-16T12:07:54.334Z,18.63
2017-11-16T12:10:23.760Z,18.00
2017-11-16T12:12:52.628Z,17.47
2017-11-16T12:15:21.951Z,18.13
2017-11-16T12:17:50.820Z,19.73
2017-11-16T12:20:20.895Z,19.30
2017-11-16T12:22:49.717Z,20.13
2017-11-16T12:25:18.611Z,20.33
2017-11-16T12:27:47.489Z,26.00
2017-11-16T12:30:16.360Z,22.83
2017-11-16T12:32:45.975Z,21.13
2017-11-16T12:35:15.294Z,21.00
2017-11-16T12:37:44.136Z,21.03
2017-11-16T12:40:13.002Z,20.47
2017-11-16T12:42:41.874Z,17.53
2017-11-16T12:45:10.742Z,21.93
2017-11-16T12:47:40.360Z,19.90
2017-11-16T12:50:09.208Z,24.10
2017-11-16T12:52:38.855Z,20.90
2017-11-16T12:55:07.751Z,24.00
2017-11-16T12:57:36.620Z,22.37
2017-11-16T13:00:06.262Z,27.90
2017-11-16T13:02:35.102Z,24.10
2017-11-16T13:05:03.965Z,23.17
2017-11-16T13:07:33.601Z,22.23
2017-11-16T13:10:02.444Z,22.30
2017-11-16T13:12:32.075Z,26.30
2017-11-16T13:15:00.933Z,21.90
2017-11-16T13:17:30.558Z,26.50
2017-11-16T13:20:00.181Z,22.47
2017-11-16T13:22:29.449Z,23.80
2017-11-16T13:24:59.083Z,25.13
2017-11-16T13:27:27.937Z,23.10
2017-11-16T13:29:57.596Z,24.57
2017-11-16T13:32:26.433Z,25.67
2017-11-16T13:34:55.324Z,31.43
2017-11-16T13:37:24.178Z,25.60
2017-11-16T13:39:53.047Z,28.63
2017-11-16T13:42:21.897Z,21.63
2017-11-16T13:44:51.544Z,22.30
2017-11-16T13:47:20.382Z,24.77
2017-11-16T13:49:50.321Z,28.23
2017-11-16T13:52:19.959Z,33.70
2017-11-16T13:54:48.813Z,27.27
2017-11-16T13:57:17.659Z,26.90
2017-11-16T13:59:46.538Z,23.20
2017-11-16T14:02:15.372Z,24.60
2017-11-16T14:04:44.559Z,27.20
2017-11-16T14:07:14.160Z,28.40
2017-11-16T14:09:43.782Z,26.27
2017-11-16T14:12:12.629Z,21.73
2017-11-16T14:14:41.475Z,22.60
2017-11-16T14:17:10.329Z,21.57
2017-11-16T14:19:39.630Z,21.17
2017-11-16T14:22:09.264Z,26.43
2017-11-16T14:24:38.754Z,32.10
2017-11-16T14:27:08.445Z,29.37
2017-11-16T14:29:37.545Z,31.10
2017-11-16T14:32:07.158Z,33.20
2017-11-16T14:34:36.011Z,30.50
2017-11-16T14:37:05.628Z,24.60
2017-11-16T14:39:35.249Z,25.67
2017-11-16T14:42:04.902Z,23.10
2017-11-16T14:44:33.742Z,23.57
2017-11-16T14:47:03.397Z,22.73
2017-11-16T14:49:32.236Z,19.13
2017-11-16T14:52:01.926Z,20.57
2017-11-16T14:54:31.791Z,21.50
2017-11-16T14:57:00.647Z,21.50
2017-11-16T14:59:29.506Z,22.50
2017-11-16T15:01:58.357Z,18.43
2017-11-16T15:04:27.238Z,20.80
2017-11-16T15:06:56.076Z,20.47
2017-11-16T15:09:24.928Z,19.20
2017-11-16T15:11:53.792Z,20.53
2017-11-16T15:14:23.390Z,21.03
2017-11-16T15:16:53.000Z,19.80
2017-11-16T15:19:21.860Z,19.43
2017-11-16T15:21:50.716Z,24.37
2017-11-16T15:24:19.575Z,19.07
2017-11-16T15:26:48.438Z,21.97
2017-11-16T15:29:17.270Z,21.10
2017-11-16T15:31:47.048Z,18.10
2017-11-16T15:34:16.671Z,19.93
2017-11-16T15:36:46.297Z,20.03
2017-11-16T15:39:15.163Z,23.00
2017-11-16T15:41:44.045Z,21.07
2017-11-16T15:44:13.663Z,23.77
2017-11-16T15:46:43.285Z,24.67
2017-11-16T15:49:12.140Z,17.30
2017-11-16T15:51:40.996Z,19.00
2017-11-16T15:54:09.853Z,18.07
2017-11-16T15:56:38.722Z,20.17
2017-11-16T15:59:07.543Z,18.13
2017-11-16T16:01:36.426Z,17.53
2017-11-16T16:04:05.389Z,21.57
2017-11-16T16:06:34.233Z,16.70
2017-11-16T16:09:03.848Z,15.83
2017-11-16T16:11:32.738Z,19.27
2017-11-16T16:14:02.377Z,21.47
2017-11-16T16:16:31.230Z,22.13
2017-11-16T16:19:00.072Z,22.73
2017-11-16T16:21:28.953Z,18.80
2017-11-16T16:23:57.795Z,22.00
2017-11-16T16:26:27.441Z,24.30
2017-11-16T16:28:56.299Z,20.00
2017-11-16T16:31:25.941Z,24.47
2017-11-16T16:33:54.792Z,25.53
2017-11-16T16:36:24.401Z,20.40
2017-11-16T16:38:54.028Z,24.13
2017-11-16T16:41:23.604Z,20.13
2017-11-16T16:43:52.486Z,24.13
2017-11-16T16:46:22.878Z,22.10
2017-11-16T16:48:51.723Z,22.83
2017-11-16T16:51:21.332Z,23.10
2017-11-16T16:53:50.958Z,20.30
2017-11-16T16:56:19.831Z,19.53
2017-11-16T16:58:48.740Z,22.37
2017-11-16T17:01:17.597Z,24.87
2017-11-16T17:03:47.217Z,22.47
2017-11-16T17:06:16.086Z,19.97
2017-11-16T17:08:44.923Z,26.97
2017-11-16T17:11:13.829Z,19.13
2017-11-16T17:13:44.187Z,20.13
2017-11-16T17:16:13.075Z,19.97
2017-11-16T17:18:41.966Z,18.53
2017-11-16T17:21:10.832Z,20.20
2017-11-16T17:23:40.469Z,23.70
2017-11-16T17:26:09.429Z,23.60
2017-11-16T17:28:39.037Z,22.40
2017-11-16T17:31:08.664Z,24.23
2017-11-16T17:33:37.535Z,22.63
2017-11-16T17:36:07.145Z,20.07
2017-11-16T17:38:36.088Z,23.67
2017-11-16T17:41:04.928Z,21.57
2017-11-16T17:43:34.553Z,24.03
2017-11-16T17:46:03.483Z,26.27
2017-11-16T17:48:32.321Z,21.33
2017-11-16T17:51:01.204Z,27.43
2017-11-16T17:53:30.793Z,26.50
2017-11-16T17:55:59.997Z,26.97
2017-11-16T17:58:29.620Z,29.43
2017-11-16T18:00:59.256Z,28.50
2017-11-16T18:03:28.187Z,23.53
2017-11-16T18:05:57.025Z,26.83
2017-11-16T18:08:27.254Z,22.90
2017-11-16T18:10:56.919Z,29.17
2017-11-16T18:13:25.758Z,25.13
2017-11-16T18:15:54.616Z,23.97
2017-11-16T18:18:24.253Z,34.50
2017-11-16T18:20:53.136Z,28.17
2017-11-16T18:23:23.119Z,30.00
2017-11-16T18:25:51.962Z,24.77
2017-11-16T18:28:20.821Z,29.63
2017-11-16T18:30:50.501Z,29.90
2017-11-16T18:33:19.359Z,26.93
2017-11-16T18:35:48.222Z,29.27
2017-11-16T18:38:17.413Z,31.20
2017-11-16T18:40:47.101Z,28.67
2017-11-16T18:43:15.997Z,32.20
2017-11-16T18:45:45.940Z,31.57
2017-11-16T18:48:14.824Z,25.50
2017-11-16T18:50:44.420Z,28.77
2017-11-16T18:53:14.068Z,30.47
2017-11-16T18:55:42.890Z,30.33
2017-11-16T18:58:11.761Z,28.60
2017-11-16T19:00:40.629Z,37.80
2017-11-16T19:03:09.510Z,28.97
2017-11-16T19:05:38.381Z,32.57
2017-11-16T19:08:07.280Z,33.20
2017-11-16T19:10:37.574Z,33.87
2017-11-16T19:26:06.484Z,33.40
2017-11-16T19:28:35.352Z,39.53
2017-11-16T19:31:04.293Z,34.03
2017-11-16T19:33:34.065Z,40.03
2017-11-16T19:36:02.927Z,40.63
2017-11-16T19:38:31.882Z,40.07
2017-11-16T19:41:00.767Z,35.80
2017-11-16T19:43:29.716Z,38.10
2017-11-16T19:45:58.638Z,34.10
2017-11-16T19:48:27.475Z,44.23
2017-11-16T19:50:56.333Z,41.53
2017-11-16T19:53:26.171Z,35.30
2017-11-16T19:55:55.100Z,34.27
2017-11-16T19:58:24.061Z,38.17
2017-11-16T20:00:52.922Z,38.27
2017-11-16T20:03:21.749Z,40.97
2017-11-16T20:05:50.622Z,38.33
2017-11-16T20:08:19.527Z,37.93
2017-11-16T20:10:48.538Z,35.63
2017-11-16T20:13:17.395Z,38.23
2017-11-16T20:15:46.347Z,39.23
2017-11-16T20:18:15.972Z,36.97
2017-11-16T20:20:45.207Z,44.30
2017-11-16T20:23:14.126Z,39.00
2017-11-16T20:25:43.032Z,37.13
2017-11-16T20:28:12.666Z,37.70
2017-11-16T20:30:42.031Z,42.80
2017-11-16T20:33:11.641Z,42.00
2017-11-16T20:35:41.345Z,44.33
2017-11-16T20:51:52.226Z,54.90
2017-11-16T20:54:22.880Z,53.60
2017-11-16T20:56:51.760Z,55.90
2017-11-16T20:59:20.600Z,59.40
2017-11-16T21:01:50.204Z,67.80
2017-11-16T21:04:19.953Z,60.13
2017-11-16T21:06:48.803Z,59.67
2017-11-16T21:09:18.592Z,66.97
2017-11-16T21:11:47.481Z,65.30
2017-11-16T21:14:17.174Z,56.53
2017-11-16T21:16:46.168Z,65.50
2017-11-16T21:19:15.013Z,59.60
2017-11-16T21:21:44.115Z,63.47
2017-11-16T21:24:12.961Z,67.30
2017-11-16T21:26:42.612Z,59.67
2017-11-16T21:29:11.476Z,68.30
2017-11-16T21:31:41.142Z,64.93
2017-11-16T21:34:10.036Z,66.70
2017-11-16T21:36:38.882Z,73.17
2017-11-16T21:39:07.783Z,65.17
2017-11-16T21:41:36.628Z,73.47
2017-11-16T21:44:07.141Z,70.13
2017-11-16T21:46:35.975Z,82.63
2017-11-16T21:49:04.982Z,75.13
2017-11-16T21:51:33.808Z,83.47
2017-11-16T21:54:02.674Z,71.83
2017-11-16T21:56:31.621Z,82.23
2017-11-16T21:59:01.296Z,72.90
2017-11-16T22:01:30.133Z,78.23
2017-11-16T22:03:58.989Z,76.50
2017-11-16T22:06:28.625Z,83.47
2017-11-16T22:08:57.505Z,79.47
2017-11-16T22:11:26.376Z,79.40
2017-11-16T22:13:55.236Z,78.60
2017-11-16T22:16:24.090Z,89.27
2017-11-16T22:18:53.723Z,74.97
2017-11-16T22:21:22.579Z,79.97
2017-11-16T22:23:51.532Z,81.67
2017-11-16T22:26:20.392Z,81.17
2017-11-16T22:28:49.458Z,92.37
2017-11-16T22:31:19.097Z,84.50
2017-11-16T22:33:47.946Z,76.20
2017-11-16T22:36:18.795Z,86.00
2017-11-16T22:38:47.612Z,90.07
2017-11-16T22:41:16.477Z,99.43
2017-11-16T22:43:46.081Z,90.13
2017-11-16T22:46:15.711Z,89.57
2017-11-16T22:48:44.594Z,95.50
2017-11-16T22:51:13.443Z,89.57
2017-11-16T22:53:42.306Z,96.40
2017-11-16T22:56:11.145Z,102.90
2017-11-16T22:58:40.783Z,102.10
2017-11-16T23:01:09.641Z,103.23
2017-11-16T23:03:39.296Z,85.30
2017-11-16T23:06:08.171Z,84.17
2017-11-16T23:08:37.040Z,95.50
2017-11-16T23:11:05.909Z,84.40
2017-11-16T23:13:34.768Z,99.87
2017-11-16T23:16:04.408Z,98.13
2017-11-16T23:18:33.243Z,95.40
2017-11-16T23:21:02.080Z,106.13
2017-11-16T23:23:30.934Z,91.03
2017-11-16T23:26:00.556Z,94.13
2017-11-16T23:28:30.204Z,92.83
2017-11-16T23:30:59.054Z,87.97
2017-11-16T23:33:28.992Z,105.20
2017-11-16T23:35:57.852Z,90.03
2017-11-16T23:38:27.471Z,83.20
2017-11-16T23:40:57.071Z,90.07
2017-11-16T23:43:26.678Z,91.47
2017-11-16T23:45:56.295Z,90.90
2017-11-16T23:48:25.162Z,100.00
2017-11-16T23:50:54.912Z,99.57
2017-11-16T23:53:24.424Z,96.20
2017-11-16T23:55:53.272Z,92.97
2017-11-16T23:58:23.319Z,103.57
